createdAt,value
2023-04-19T00:00:57.921Z,12.87
2023-04-19T00:10:56.792Z,12.79
2023-04-19T00:25:04.994Z,12.68
2023-04-19T00:28:34.072Z,12.63
2023-04-19T00:31:35.901Z,12.60
2023-04-19T00:34:09.904Z,12.58
2023-04-19T00:36:39.013Z,12.55
2023-04-19T00:39:07.114Z,12.51
2023-04-19T00:41:36.348Z,12.49
2023-04-19T00:44:11.824Z,12.53
2023-04-19T00:46:49.780Z,12.56
2023-04-19T00:49:19.723Z,12.54
2023-04-19T00:51:52.014Z,12.54
2023-04-19T00:54:25.157Z,12.54
2023-04-19T00:56:55.414Z,12.53
2023-04-19T00:59:25.348Z,12.53
2023-04-19T01:01:52.631Z,12.55
2023-04-19T01:04:20.152Z,12.56
2023-04-19T01:06:52.163Z,12.55
2023-04-19T01:09:29.916Z,12.53
2023-04-19T01:12:06.957Z,12.52
2023-04-19T01:14:37.779Z,12.58
2023-04-19T01:17:23.817Z,12.57
2023-04-19T01:20:04.470Z,12.52
2023-04-19T01:22:54.471Z,12.52
2023-04-19T01:25:39.639Z,12.51
2023-04-19T01:28:24.799Z,12.48
2023-04-19T01:31:05.666Z,12.47
2023-04-19T01:34:02.587Z,12.50
2023-04-19T01:36:54.397Z,12.50
2023-04-19T01:39:31.590Z,12.52
2023-04-19T01:45:11.186Z,12.53
2023-04-19T01:48:06.010Z,12.52
2023-04-19T01:50:49.560Z,12.55
2023-04-19T01:53:39.985Z,12.54
2023-04-19T01:56:22.656Z,12.54
2023-04-19T01:58:57.256Z,12.53
2023-04-19T02:01:36.209Z,12.54
2023-04-19T02:04:28.518Z,12.56
2023-04-19T02:07:10.693Z,12.58
2023-04-19T02:09:57.442Z,12.57
2023-04-19T02:12:31.707Z,12.57
2023-04-19T02:15:05.044Z,12.60
2023-04-19T02:17:41.983Z,12.65
2023-04-19T02:20:12.300Z,12.67
2023-04-19T02:22:46.703Z,12.69
2023-04-19T02:25:21.692Z,12.72
2023-04-19T02:27:56.729Z,12.74
2023-04-19T02:30:27.512Z,12.75
2023-04-19T02:32:56.586Z,12.71
2023-04-19T02:35:40.059Z,12.65
2023-04-19T02:38:19.486Z,12.61
2023-04-19T02:41:01.630Z,12.55
2023-04-19T02:43:39.414Z,12.56
2023-04-19T02:46:11.401Z,12.56
2023-04-19T02:48:51.890Z,12.50
2023-04-19T02:51:34.460Z,12.48
2023-04-19T02:54:06.079Z,12.53
2023-04-19T02:56:37.319Z,12.55
2023-04-19T02:59:17.388Z,12.48
2023-04-19T03:01:47.120Z,12.44
2023-04-19T03:04:17.483Z,12.41
2023-04-19T03:06:49.353Z,12.37
2023-04-19T03:09:36.731Z,12.35
2023-04-19T03:12:12.138Z,12.32
2023-04-19T03:14:45.664Z,12.31
2023-04-19T03:17:22.247Z,12.34
2023-04-19T03:20:04.004Z,12.34
2023-04-19T03:22:43.107Z,12.31
2023-04-19T03:25:13.900Z,12.28
2023-04-19T03:27:45.966Z,12.26
2023-04-19T03:30:33.881Z,12.22
2023-04-19T03:33:00.997Z,12.15
2023-04-19T03:35:29.791Z,12.11
2023-04-19T03:38:01.859Z,12.05
2023-04-19T03:40:30.977Z,12.01
2023-04-19T03:42:58.697Z,11.97
2023-04-19T03:45:32.069Z,11.97
2023-04-19T03:48:02.924Z,11.95
2023-04-19T03:50:32.599Z,11.93
2023-04-19T03:53:05.368Z,12.03
2023-04-19T03:55:35.446Z,12.13
2023-04-19T03:58:03.232Z,12.24
2023-04-19T04:00:46.112Z,12.29
2023-04-19T04:03:17.946Z,12.26
2023-04-19T04:05:45.323Z,12.15
2023-04-19T04:08:15.051Z,12.05
2023-04-19T04:10:44.941Z,11.95
2023-04-19T04:13:12.380Z,11.85
2023-04-19T04:15:49.890Z,11.80
2023-04-19T04:18:18.812Z,11.76
2023-04-19T04:20:54.736Z,11.70
2023-04-19T04:23:22.879Z,11.63
2023-04-19T04:26:13.251Z,11.57
2023-04-19T04:28:54.290Z,11.49
2023-04-19T04:31:26.191Z,11.50
2023-04-19T04:33:59.870Z,11.50
2023-04-19T04:36:36.635Z,11.54
2023-04-19T04:39:16.407Z,11.63
2023-04-19T04:41:48.426Z,11.65
2023-04-19T04:44:18.344Z,11.65
2023-04-19T04:46:48.785Z,11.66
2023-04-19T04:49:21.152Z,11.66
2023-04-19T04:51:48.400Z,11.68
2023-04-19T04:54:16.167Z,11.72
2023-04-19T04:56:44.557Z,11.74
2023-04-19T04:59:12.696Z,11.78
2023-04-19T05:01:43.496Z,11.84
2023-04-19T05:04:11.481Z,11.90
2023-04-19T05:06:41.490Z,11.92
2023-04-19T05:09:11.367Z,11.95
2023-04-19T05:11:42.387Z,11.94
2023-04-19T05:14:09.652Z,11.97
2023-04-19T05:16:39.507Z,12.03
2023-04-19T05:19:10.321Z,12.09
2023-04-19T05:21:43.732Z,12.21
2023-04-19T05:24:28.778Z,12.34
2023-04-19T05:26:58.806Z,12.46
2023-04-19T05:29:26.262Z,12.60
2023-04-19T05:31:59.210Z,12.68
2023-04-19T05:34:34.561Z,12.65
2023-04-19T05:37:18.484Z,12.61
2023-04-19T05:39:53.372Z,12.46
2023-04-19T05:42:24.089Z,12.37
2023-04-19T05:45:12.043Z,12.31
2023-04-19T05:47:46.113Z,12.25
2023-04-19T05:50:49.366Z,12.25
2023-04-19T05:53:43.375Z,12.26
2023-04-19T05:56:21.442Z,12.32
2023-04-19T05:58:57.604Z,12.46
2023-04-19T06:01:40.280Z,12.64
2023-04-19T06:04:18.850Z,12.77
2023-04-19T06:06:52.040Z,12.95
2023-04-19T06:09:37.702Z,13.08
2023-04-19T06:12:09.874Z,13.26
2023-04-19T06:14:40.992Z,13.44
2023-04-19T06:17:13.127Z,13.52
2023-04-19T06:20:02.645Z,13.49
2023-04-19T06:22:44.508Z,13.49
2023-04-19T06:25:11.982Z,13.60
2023-04-19T06:27:39.279Z,13.78
2023-04-19T06:30:13.091Z,13.93
2023-04-19T06:32:49.817Z,14.07
2023-04-19T06:35:17.401Z,14.31
2023-04-19T06:38:09.295Z,14.50
2023-04-19T06:40:42.109Z,15.70
2023-04-19T06:43:09.871Z,17.81
2023-04-19T06:45:37.233Z,19.90
2023-04-19T06:48:04.700Z,22.39
2023-04-19T06:50:49.877Z,23.80
2023-04-19T06:53:20.354Z,24.94
2023-04-19T06:56:11.759Z,24.85
2023-04-19T06:59:03.734Z,24.29
2023-04-19T07:01:31.084Z,24.01
2023-04-19T07:04:05.605Z,23.74
2023-04-19T07:07:14.975Z,23.36
2023-04-19T07:09:51.115Z,22.55
2023-04-19T07:12:30.209Z,21.70
2023-04-19T07:15:07.983Z,20.78
2023-04-19T07:17:48.278Z,19.58
2023-04-19T07:20:38.486Z,18.48
2023-04-19T07:23:17.133Z,17.63
2023-04-19T07:25:47.500Z,17.24
2023-04-19T07:28:17.014Z,16.97
2023-04-19T07:30:46.266Z,16.68
2023-04-19T07:33:13.583Z,16.56
2023-04-19T07:36:06.640Z,16.63
2023-04-19T07:38:37.291Z,16.54
2023-04-19T07:45:23.668Z,16.28
2023-04-19T07:49:29.776Z,15.98
2023-04-19T07:52:33.978Z,15.93
2023-04-19T07:59:07.501Z,16.07
2023-04-19T08:02:20.395Z,16.08
2023-04-19T08:08:22.199Z,16.02
2023-04-19T08:11:28.018Z,16.23
2023-04-19T08:14:22.178Z,16.53
2023-04-19T08:21:24.089Z,16.92
2023-04-19T08:24:25.022Z,16.72
2023-04-19T08:27:49.254Z,16.56
2023-04-19T08:30:41.412Z,16.49
2023-04-19T08:33:09.407Z,16.49
2023-04-19T08:35:49.958Z,16.47
2023-04-19T08:38:38.984Z,16.61
2023-04-19T08:41:12.978Z,16.81
2023-04-19T08:43:44.236Z,16.94
2023-04-19T08:46:12.227Z,17.16
2023-04-19T08:48:41.279Z,17.56
2023-04-19T08:51:10.126Z,18.05
2023-04-19T08:53:37.307Z,19.54
2023-04-19T08:56:20.774Z,20.26
2023-04-19T08:59:11.758Z,20.52
2023-04-19T09:01:44.829Z,20.32
2023-04-19T09:04:35.480Z,20.15
2023-04-19T09:07:04.753Z,19.96
2023-04-19T09:09:39.236Z,20.05
2023-04-19T09:12:18.572Z,20.65
2023-04-19T09:15:00.396Z,20.65
2023-04-19T09:17:27.856Z,20.11
2023-04-19T09:19:56.491Z,19.52
2023-04-19T09:22:23.651Z,19.10
2023-04-19T09:25:32.232Z,18.70
2023-04-19T09:27:41.299Z,18.25
2023-04-19T09:30:14.793Z,18.05
2023-04-19T09:32:49.384Z,17.75
2023-04-19T09:35:19.354Z,17.47
2023-04-19T09:38:05.318Z,17.50
2023-04-19T09:40:39.853Z,17.51
2023-04-19T09:43:29.069Z,17.41
2023-04-19T09:45:56.669Z,17.48
2023-04-19T09:48:23.719Z,17.71
2023-04-19T09:51:03.303Z,17.89
2023-04-19T09:53:34.736Z,17.64
2023-04-19T09:56:03.887Z,17.43
2023-04-19T09:58:42.618Z,17.48
2023-04-19T10:01:16.543Z,17.56
2023-04-19T10:03:50.439Z,17.65
2023-04-19T10:08:50.914Z,17.24
2023-04-19T10:11:21.991Z,17.24
2023-04-19T10:13:50.709Z,17.32
2023-04-19T10:16:19.961Z,17.47
2023-04-19T10:18:50.312Z,17.64
2023-04-19T10:21:19.317Z,17.66
2023-04-19T10:23:47.194Z,17.50
2023-04-19T10:26:13.973Z,17.26
2023-04-19T10:28:42.056Z,16.92
2023-04-19T10:31:12.981Z,16.75
2023-04-19T10:33:40.835Z,16.68
2023-04-19T10:36:15.831Z,16.70
2023-04-19T10:38:48.426Z,16.78
2023-04-19T10:41:17.831Z,16.95
2023-04-19T10:44:11.817Z,17.02
2023-04-19T10:46:43.089Z,17.03
2023-04-19T10:49:11.683Z,16.94
2023-04-19T10:51:43.490Z,16.80
2023-04-19T10:54:31.800Z,16.72
2023-04-19T10:57:06.728Z,16.81
2023-04-19T10:59:38.334Z,17.25
2023-04-19T11:02:28.225Z,17.93
2023-04-19T11:04:55.379Z,18.82
2023-04-19T11:07:22.448Z,19.89
2023-04-19T11:09:51.230Z,20.84
2023-04-19T11:12:20.611Z,21.35
2023-04-19T11:14:59.979Z,21.56
2023-04-19T11:17:31.708Z,21.48
2023-04-19T11:20:10.432Z,21.75
2023-04-19T11:22:42.874Z,21.90
2023-04-19T11:25:21.158Z,22.70
2023-04-19T11:27:53.174Z,23.01
2023-04-19T11:30:23.205Z,22.74
2023-04-19T11:32:53.126Z,22.59
2023-04-19T11:35:25.076Z,22.44
2023-04-19T11:37:53.188Z,22.24
2023-04-19T11:40:21.853Z,21.61
2023-04-19T11:43:00.805Z,21.43
2023-04-19T11:45:33.102Z,21.51
2023-04-19T11:48:04.654Z,21.91
2023-04-19T11:50:40.990Z,22.46
2023-04-19T11:53:17.188Z,22.90
2023-04-19T11:55:51.312Z,23.29
2023-04-19T11:58:33.791Z,22.98
2023-04-19T12:01:09.139Z,22.71
2023-04-19T12:03:52.077Z,22.73
2023-04-19T12:06:24.597Z,22.27
2023-04-19T12:08:52.763Z,21.81
2023-04-19T12:11:23.249Z,21.96
2023-04-19T12:14:12.484Z,22.54
2023-04-19T12:16:39.472Z,22.67
2023-04-19T12:19:18.001Z,23.09
2023-04-19T12:21:46.668Z,23.74
2023-04-19T12:24:16.102Z,24.23
2023-04-19T12:26:57.083Z,24.16
2023-04-19T12:29:24.327Z,23.84
2023-04-19T12:31:51.489Z,23.38
2023-04-19T12:34:18.217Z,22.71
2023-04-19T12:36:44.965Z,22.05
2023-04-19T12:39:13.140Z,21.73
2023-04-19T12:41:40.116Z,21.25
2023-04-19T12:44:07.048Z,21.07
2023-04-19T12:46:35.343Z,21.26
2023-04-19T12:49:02.340Z,21.60
2023-04-19T12:51:29.363Z,21.85
2023-04-19T12:53:59.915Z,22.00
2023-04-19T12:56:26.775Z,22.08
2023-04-19T12:58:53.643Z,22.35
2023-04-19T13:01:20.719Z,22.39
2023-04-19T13:03:47.989Z,22.07
2023-04-19T13:06:16.839Z,21.66
2023-04-19T13:08:46.593Z,21.23
2023-04-19T13:11:16.477Z,20.67
2023-04-19T13:13:43.488Z,20.62
2023-04-19T13:16:13.216Z,20.61
2023-04-19T13:18:40.193Z,20.57
2023-04-19T13:21:08.458Z,20.68
2023-04-19T13:23:35.705Z,20.78
2023-04-19T13:26:02.450Z,20.92
2023-04-19T13:28:31.253Z,20.81
2023-04-19T13:31:02.942Z,20.71
2023-04-19T13:33:30.108Z,20.87
2023-04-19T13:35:56.798Z,21.09
2023-04-19T13:38:24.345Z,20.98
2023-04-19T13:40:51.570Z,20.96
2023-04-19T13:43:18.231Z,21.11
2023-04-19T13:45:46.605Z,20.98
2023-04-19T13:48:13.610Z,20.67
2023-04-19T13:50:41.638Z,20.35
2023-04-19T13:53:09.502Z,19.79
2023-04-19T13:55:40.084Z,19.46
2023-04-19T13:58:08.849Z,19.40
2023-04-19T14:00:35.871Z,19.34
2023-04-19T14:03:02.816Z,19.36
2023-04-19T14:05:29.998Z,19.70
2023-04-19T14:07:56.912Z,20.24
2023-04-19T14:10:27.860Z,20.51
2023-04-19T14:12:55.094Z,20.63
2023-04-19T14:15:23.589Z,20.96
2023-04-19T14:17:50.446Z,20.86
2023-04-19T14:20:18.459Z,20.49
2023-04-19T14:22:46.131Z,20.16
2023-04-19T14:25:15.362Z,19.82
2023-04-19T14:27:42.110Z,19.34
2023-04-19T14:30:09.869Z,18.94
2023-04-19T14:32:37.086Z,18.72
2023-04-19T14:35:04.148Z,18.97
2023-04-19T14:37:30.878Z,19.51
2023-04-19T14:39:57.633Z,20.10
2023-04-19T14:42:24.407Z,20.44
2023-04-19T14:44:52.185Z,20.45
2023-04-19T14:47:19.401Z,20.12
2023-04-19T14:49:46.187Z,19.74
2023-04-19T14:52:12.913Z,19.39
2023-04-19T14:54:39.821Z,19.26
2023-04-19T14:57:06.669Z,19.19
2023-04-19T14:59:33.584Z,19.05
2023-04-19T15:02:00.357Z,18.89
2023-04-19T15:04:28.324Z,18.72
2023-04-19T15:06:55.046Z,18.60
2023-04-19T15:09:21.810Z,18.53
2023-04-19T15:11:49.092Z,18.54
2023-04-19T15:14:15.866Z,18.66
2023-04-19T15:16:43.257Z,19.05
2023-04-19T15:19:10.002Z,19.23
2023-04-19T15:21:36.818Z,19.22
2023-04-19T15:24:04.634Z,19.47
2023-04-19T15:26:31.782Z,19.83
2023-04-19T15:28:58.664Z,19.89
2023-04-19T15:31:25.498Z,19.61
2023-04-19T15:33:53.143Z,19.21
2023-04-19T15:36:19.817Z,18.84
2023-04-19T15:38:47.333Z,18.89
2023-04-19T15:41:15.486Z,19.03
2023-04-19T15:43:42.655Z,19.23
2023-04-19T15:46:13.274Z,19.24
2023-04-19T15:48:40.580Z,19.10
2023-04-19T15:51:08.543Z,18.96
2023-04-19T15:53:37.992Z,18.69
2023-04-19T15:56:05.894Z,18.49
2023-04-19T15:58:32.549Z,18.17
2023-04-19T16:00:59.264Z,17.94
2023-04-19T16:03:26.119Z,17.92
2023-04-19T16:05:52.978Z,18.11
2023-04-19T16:08:20.032Z,18.05
2023-04-19T16:10:47.334Z,17.88
2023-04-19T16:13:15.171Z,17.80
2023-04-19T16:15:43.173Z,17.63
2023-04-19T16:18:11.028Z,17.63
2023-04-19T16:20:39.426Z,17.58
2023-04-19T16:23:06.523Z,17.47
2023-04-19T16:25:33.949Z,17.37
2023-04-19T16:28:01.054Z,17.27
2023-04-19T16:30:28.444Z,17.11
2023-04-19T16:32:56.256Z,16.92
2023-04-19T16:35:23.839Z,16.76
2023-04-19T16:37:50.548Z,16.59
2023-04-19T16:40:17.775Z,16.51
2023-04-19T16:42:44.419Z,16.51
2023-04-19T16:45:11.172Z,16.61
2023-04-19T16:47:38.756Z,16.67
2023-04-19T16:50:06.333Z,16.74
2023-04-19T16:52:34.734Z,16.72
2023-04-19T16:55:03.752Z,16.56
2023-04-19T16:57:31.943Z,16.35
2023-04-19T16:59:58.913Z,16.28
2023-04-19T17:02:26.186Z,16.20
2023-04-19T17:04:53.168Z,16.08
2023-04-19T17:07:20.011Z,15.89
2023-04-19T17:09:46.970Z,15.76
2023-04-19T17:12:13.947Z,15.73
2023-04-19T17:14:40.701Z,15.72
2023-04-19T17:17:08.511Z,15.73
2023-04-19T17:19:36.395Z,15.76
2023-04-19T17:22:05.059Z,15.69
2023-04-19T17:24:32.956Z,15.55
2023-04-19T17:27:00.323Z,15.42
2023-04-19T17:29:27.517Z,15.27
2023-04-19T17:31:54.437Z,15.11
2023-04-19T17:34:21.197Z,15.00
2023-04-19T17:36:47.818Z,14.92
2023-04-19T17:39:14.645Z,14.85
2023-04-19T17:41:41.460Z,14.78
2023-04-19T17:44:08.198Z,14.74
2023-04-19T17:46:34.937Z,14.67
2023-04-19T17:49:02.152Z,14.60
2023-04-19T17:51:28.794Z,14.52
2023-04-19T17:53:56.462Z,14.43
2023-04-19T17:56:24.357Z,14.36
2023-04-19T17:58:51.436Z,14.30
2023-04-19T18:01:18.209Z,14.21
2023-04-19T18:03:45.198Z,14.15
2023-04-19T18:06:12.152Z,14.07
2023-04-19T18:08:39.095Z,14.00
2023-04-19T18:11:06.986Z,13.93
2023-04-19T18:13:33.909Z,13.87
2023-04-19T18:16:00.793Z,13.84
2023-04-19T18:18:27.510Z,13.78
2023-04-19T18:20:54.425Z,13.74
2023-04-19T18:23:21.297Z,13.69
2023-04-19T18:25:56.488Z,13.63
2023-04-19T18:28:23.322Z,13.54
2023-04-19T18:30:53.782Z,13.47
2023-04-19T18:33:23.506Z,13.41
2023-04-19T18:35:50.292Z,13.37
2023-04-19T18:38:18.108Z,13.33
2023-04-19T18:40:45.053Z,13.30
2023-04-19T18:43:14.078Z,13.26
2023-04-19T18:45:40.966Z,13.18
2023-04-19T18:48:07.904Z,13.14
2023-04-19T18:50:37.441Z,13.14
2023-04-19T18:53:04.459Z,13.10
2023-04-19T18:55:31.381Z,13.04
2023-04-19T18:57:58.137Z,13.00
2023-04-19T19:00:25.261Z,12.98
2023-04-19T19:02:52.885Z,12.93
2023-04-19T19:05:20.291Z,12.90
2023-04-19T19:07:47.464Z,12.86
2023-04-19T19:10:21.010Z,12.82
2023-04-19T19:12:50.184Z,12.76
2023-04-19T19:15:17.058Z,12.73
2023-04-19T19:17:49.432Z,12.69
2023-04-19T19:20:17.837Z,12.65
2023-04-19T19:25:12.554Z,12.57
2023-04-19T19:27:40.848Z,12.55
2023-04-19T19:30:09.596Z,12.51
2023-04-19T19:32:36.495Z,12.47
2023-04-19T19:35:06.226Z,12.42
2023-04-19T19:37:36.221Z,12.38
2023-04-19T19:40:06.636Z,12.34
2023-04-19T19:42:35.056Z,12.29
2023-04-19T19:45:02.443Z,12.25
2023-04-19T19:47:31.565Z,12.22
2023-04-19T19:52:28.857Z,12.14
2023-04-19T19:54:55.947Z,12.12
2023-04-19T19:59:56.326Z,12.06
2023-04-19T20:02:24.355Z,12.00
2023-04-19T20:04:51.847Z,11.96
2023-04-19T20:07:37.334Z,11.95
2023-04-19T20:10:08.502Z,11.92
2023-04-19T20:12:35.927Z,11.89
2023-04-19T20:15:04.454Z,11.87
2023-04-19T20:17:31.314Z,11.87
2023-04-19T20:19:58.278Z,11.83
2023-04-19T20:22:25.046Z,11.81
2023-04-19T20:24:52.994Z,11.78
2023-04-19T20:27:19.883Z,11.78
2023-04-19T20:29:46.735Z,11.76
2023-04-19T20:32:13.905Z,11.73
2023-04-19T20:34:40.821Z,11.72
2023-04-19T20:37:07.542Z,11.69
2023-04-19T20:39:34.275Z,11.65
2023-04-19T20:42:01.570Z,11.62
2023-04-19T20:44:28.962Z,11.58
2023-04-19T20:46:56.229Z,11.56
2023-04-19T20:49:23.353Z,11.50
2023-04-19T20:51:51.584Z,11.47
2023-04-19T20:54:19.245Z,11.41
2023-04-19T20:56:47.659Z,11.36
2023-04-19T20:59:14.657Z,11.32
2023-04-19T21:01:43.162Z,11.29
2023-04-19T21:04:10.501Z,11.26
2023-04-19T21:06:37.426Z,11.23
2023-04-19T21:09:05.310Z,11.18
2023-04-19T21:11:32.164Z,11.14
2023-04-19T21:14:01.240Z,11.08
2023-04-19T21:16:28.244Z,11.04
2023-04-19T21:18:59.742Z,11.01
2023-04-19T21:21:28.088Z,10.97
2023-04-19T21:23:54.792Z,10.94
2023-04-19T21:26:22.123Z,10.89
2023-04-19T21:28:49.110Z,10.84
2023-04-19T21:31:15.899Z,10.79
2023-04-19T21:33:43.245Z,10.75
2023-04-19T21:36:10.269Z,10.71
2023-04-19T21:38:37.285Z,10.68
2023-04-19T21:41:06.164Z,10.65
2023-04-19T21:43:33.002Z,10.60
2023-04-19T21:46:01.733Z,10.55
2023-04-19T21:48:28.562Z,10.50
2023-04-19T21:50:55.416Z,10.48
2023-04-19T21:53:22.214Z,10.46
2023-04-19T21:55:51.374Z,10.45
2023-04-19T21:58:18.506Z,10.42
2023-04-19T22:00:45.815Z,10.41
2023-04-19T22:03:12.818Z,10.41
2023-04-19T22:06:55.192Z,10.40
2023-04-19T22:09:58.395Z,10.32
2023-04-19T22:13:35.672Z,10.30
2023-04-19T22:16:11.054Z,10.24
2023-04-19T22:18:43.195Z,10.21
2023-04-19T22:25:41.902Z,10.15
2023-04-19T22:29:05.162Z,10.09
2023-04-19T22:50:11.170Z,9.96
2023-04-19T22:56:06.608Z,9.94
2023-04-19T22:58:41.119Z,9.93
2023-04-19T23:04:43.015Z,9.85
2023-04-19T23:11:39.564Z,9.76
2023-04-19T23:14:27.806Z,9.73
2023-04-19T23:17:07.515Z,9.73
2023-04-19T23:19:59.869Z,9.68
2023-04-19T23:22:39.208Z,9.67
2023-04-19T23:27:58.960Z,9.61
2023-04-19T23:30:36.420Z,9.61
2023-04-19T23:33:07.664Z,9.57
2023-04-19T23:36:00.525Z,9.55
2023-04-19T23:38:45.565Z,9.52
2023-04-19T23:41:18.044Z,9.50
2023-04-19T23:46:37.894Z,9.48
2023-04-19T23:49:27.244Z,9.45
2023-04-19T23:52:05.480Z,9.41
2023-04-19T23:54:46.685Z,9.37
2023-04-19T23:57:21.594Z,9.34
2023-04-19T23:59:52.630Z,9.31
